Webcam Flughafen St.Gallen-Altenrhein

Live-Bilder und Zeitraffer LSZR / ACH.

 

Live aus Altenrhein
LIVE
LSZR 281020Z 08004KT 050V120 9000 -RA OVC030 06/05 Q1008 NOSIG RMK G
Zeitraffer heute
2021-01-28 00:14:19
LSZR 272250Z AUTO 09004KT 1300 R10/1000U -SN VV008 01/01 Q1016